createdAt,value
2022-08-22T00:00:11.222Z,21.37
2022-08-22T00:02:44.406Z,22.71
2022-08-22T00:02:45.528Z,23.95
2022-08-22T00:02:47.892Z,24.68
2022-08-22T00:03:00.472Z,23.45
2022-08-22T00:03:00.666Z,23.63
2022-08-22T00:03:10.730Z,21.83
2022-08-22T00:06:07.724Z,21.11
2022-08-22T00:08:53.947Z,21.07
2022-08-22T00:11:40.248Z,21.06
2022-08-22T00:14:21.238Z,21.02
2022-08-22T00:17:01.572Z,20.99
2022-08-22T00:19:48.749Z,20.96
2022-08-22T00:22:26.631Z,20.89
2022-08-22T00:25:12.435Z,20.86
2022-08-22T00:28:03.408Z,20.88
2022-08-22T00:30:50.344Z,20.82
2022-08-22T00:33:37.991Z,20.73
2022-08-22T00:36:20.551Z,20.69
2022-08-22T00:39:00.225Z,20.65
2022-08-22T00:42:31.793Z,20.64
2022-08-22T00:45:59.326Z,20.58
2022-08-22T00:49:03.827Z,20.63
2022-08-22T00:52:16.870Z,20.59
2022-08-22T00:55:22.214Z,20.59
2022-08-22T00:58:32.834Z,20.56
2022-08-22T01:01:08.728Z,20.44
2022-08-22T01:04:26.945Z,20.43
2022-08-22T01:07:18.922Z,20.38
2022-08-22T01:10:05.334Z,20.30
2022-08-22T01:13:07.565Z,20.24
2022-08-22T01:15:39.738Z,20.15
2022-08-22T01:18:51.871Z,20.05
2022-08-22T01:22:01.247Z,20.06
2022-08-22T01:25:26.071Z,20.08
2022-08-22T01:28:43.099Z,20.08
2022-08-22T01:31:52.760Z,20.03
2022-08-22T01:35:26.301Z,20.03
2022-08-22T01:38:37.460Z,19.98
2022-08-22T01:41:50.034Z,19.91
2022-08-22T01:45:03.504Z,19.82
2022-08-22T01:47:41.208Z,19.76
2022-08-22T01:50:25.025Z,19.73
2022-08-22T01:53:06.037Z,19.75
2022-08-22T01:55:42.404Z,19.70
2022-08-22T01:58:25.201Z,19.62
2022-08-22T02:01:09.908Z,19.54
2022-08-22T02:03:54.565Z,19.51
2022-08-22T02:06:37.307Z,19.51
2022-08-22T02:09:21.725Z,19.44
2022-08-22T02:11:57.661Z,19.36
2022-08-22T02:14:43.196Z,19.33
2022-08-22T02:17:23.010Z,19.25
2022-08-22T02:20:02.856Z,19.17
2022-08-22T02:22:44.493Z,19.08
2022-08-22T02:25:28.625Z,19.01
2022-08-22T02:28:09.690Z,18.93
2022-08-22T02:30:53.769Z,18.96
2022-08-22T02:33:35.646Z,18.99
2022-08-22T02:36:21.810Z,18.92
2022-08-22T02:39:04.061Z,18.98
2022-08-22T02:41:50.357Z,19.01
2022-08-22T02:44:27.866Z,18.93
2022-08-22T02:47:09.056Z,18.92
2022-08-22T02:49:53.100Z,18.90
2022-08-22T02:52:40.756Z,18.84
2022-08-22T02:55:17.535Z,18.68
2022-08-22T02:58:01.960Z,18.66
2022-08-22T03:00:44.558Z,18.58
2022-08-22T03:03:22.565Z,18.57
2022-08-22T03:06:01.811Z,18.50
2022-08-22T03:08:34.594Z,18.45
2022-08-22T03:11:25.366Z,18.42
2022-08-22T03:14:07.447Z,18.42
2022-08-22T03:16:47.060Z,18.40
2022-08-22T03:19:28.960Z,18.29
2022-08-22T03:22:08.383Z,18.25
2022-08-22T03:24:51.034Z,18.24
2022-08-22T03:27:32.423Z,18.24
2022-08-22T03:30:12.390Z,18.14
2022-08-22T03:32:55.800Z,18.10
2022-08-22T03:35:34.107Z,18.05
2022-08-22T03:38:23.552Z,17.99
2022-08-22T03:41:31.360Z,17.93
2022-08-22T03:44:59.421Z,17.93
2022-08-22T03:48:40.520Z,17.90
2022-08-22T03:51:26.951Z,17.83
2022-08-22T03:54:35.516Z,17.75
2022-08-22T03:57:59.188Z,17.66
2022-08-22T04:01:16.669Z,17.60
2022-08-22T04:04:44.495Z,17.57
2022-08-22T04:07:58.756Z,17.49
2022-08-22T04:11:17.245Z,17.42
2022-08-22T04:14:19.608Z,17.44
2022-08-22T04:17:43.339Z,17.44
2022-08-22T04:21:03.744Z,17.32
2022-08-22T04:24:10.583Z,17.28
2022-08-22T04:26:49.109Z,17.22
2022-08-22T04:29:28.587Z,17.23
2022-08-22T04:32:14.123Z,17.25
2022-08-22T04:34:49.877Z,17.23
2022-08-22T04:37:32.212Z,17.26
2022-08-22T04:40:11.465Z,17.21
2022-08-22T04:42:46.825Z,17.17
2022-08-22T04:45:23.857Z,17.14
2022-08-22T04:48:02.290Z,17.09
2022-08-22T04:50:42.989Z,17.04
2022-08-22T04:53:31.650Z,16.98
2022-08-22T04:56:12.334Z,16.96
2022-08-22T04:58:48.903Z,16.96
2022-08-22T05:01:22.366Z,16.94
2022-08-22T05:04:01.760Z,17.01
2022-08-22T05:06:35.046Z,16.97
2022-08-22T05:09:16.020Z,17.01
2022-08-22T05:11:46.999Z,16.97
2022-08-22T05:14:24.095Z,16.97
2022-08-22T05:16:57.537Z,16.97
2022-08-22T05:19:34.724Z,17.00
2022-08-22T05:22:05.825Z,16.94
2022-08-22T05:24:42.413Z,16.90
2022-08-22T05:27:16.996Z,16.89
2022-08-22T05:29:51.777Z,16.88
2022-08-22T05:32:29.067Z,16.89
2022-08-22T05:35:03.357Z,16.92
2022-08-22T05:37:43.204Z,16.92
2022-08-22T05:40:22.014Z,17.01
2022-08-22T05:42:51.629Z,17.02
2022-08-22T05:45:22.004Z,17.05
2022-08-22T05:47:58.133Z,17.10
2022-08-22T05:50:38.167Z,17.15
2022-08-22T05:53:14.401Z,17.21
2022-08-22T05:56:00.196Z,17.26
2022-08-22T05:58:52.303Z,17.31
2022-08-22T06:01:39.953Z,17.38
2022-08-22T06:04:16.460Z,17.40
2022-08-22T06:06:55.674Z,17.43
2022-08-22T06:09:35.592Z,17.46
2022-08-22T06:12:18.128Z,17.52
2022-08-22T06:15:11.906Z,17.57
2022-08-22T06:17:49.414Z,17.63
2022-08-22T06:20:23.761Z,17.68
2022-08-22T06:22:57.035Z,17.74
2022-08-22T06:25:32.369Z,17.77
2022-08-22T06:28:09.538Z,17.80
2022-08-22T06:30:41.114Z,17.83
2022-08-22T06:33:17.268Z,17.89
2022-08-22T06:36:10.042Z,17.92
2022-08-22T06:38:58.919Z,17.97
2022-08-22T06:41:34.348Z,18.02
2022-08-22T06:44:08.064Z,18.04
2022-08-22T06:46:39.610Z,18.06
2022-08-22T06:49:11.027Z,18.08
2022-08-22T06:51:40.801Z,18.13
2022-08-22T06:54:19.205Z,18.17
2022-08-22T06:56:52.668Z,18.24
2022-08-22T06:59:28.739Z,18.30
2022-08-22T07:02:07.073Z,18.35
2022-08-22T07:04:37.241Z,18.39
2022-08-22T07:07:06.886Z,18.43
2022-08-22T07:09:39.725Z,18.49
2022-08-22T07:12:18.402Z,18.53
2022-08-22T07:14:53.666Z,18.57
2022-08-22T07:17:28.592Z,18.65
2022-08-22T07:20:05.009Z,18.70
2022-08-22T07:22:37.582Z,18.77
2022-08-22T07:25:14.892Z,18.82
2022-08-22T07:28:04.490Z,18.90
2022-08-22T07:30:55.851Z,18.99
2022-08-22T07:33:44.104Z,19.05
2022-08-22T07:36:32.092Z,19.14
2022-08-22T07:39:23.894Z,19.22
2022-08-22T07:42:08.756Z,19.30
2022-08-22T07:44:58.735Z,19.39
2022-08-22T07:47:49.980Z,19.46
2022-08-22T07:50:31.403Z,19.54
2022-08-22T07:53:10.839Z,19.63
2022-08-22T07:55:49.869Z,19.72
2022-08-22T07:58:19.895Z,19.79
2022-08-22T08:00:50.674Z,19.88
2022-08-22T08:03:27.617Z,19.97
2022-08-22T08:05:57.120Z,20.05
2022-08-22T08:08:33.175Z,20.12
2022-08-22T08:11:04.761Z,20.20
2022-08-22T08:13:39.543Z,20.29
2022-08-22T08:16:17.907Z,20.34
2022-08-22T08:18:51.088Z,20.41
2022-08-22T08:21:30.978Z,20.47
2022-08-22T08:24:03.825Z,20.53
2022-08-22T08:26:39.887Z,20.61
2022-08-22T08:29:09.255Z,20.67
2022-08-22T08:31:44.746Z,20.72
2022-08-22T08:34:24.506Z,20.78
2022-08-22T08:36:59.139Z,20.84
2022-08-22T08:39:36.790Z,20.92
2022-08-22T08:43:05.671Z,20.99
2022-08-22T08:46:07.061Z,21.07
2022-08-22T08:49:39.764Z,21.17
2022-08-22T08:52:58.639Z,21.26
2022-08-22T08:55:47.390Z,21.33
2022-08-22T08:58:43.390Z,21.42
2022-08-22T09:01:42.098Z,21.50
2022-08-22T09:04:42.310Z,21.59
2022-08-22T09:08:14.856Z,21.69
2022-08-22T09:11:14.408Z,21.76
2022-08-22T09:14:03.773Z,21.83
2022-08-22T09:16:59.613Z,21.91
2022-08-22T09:20:25.920Z,21.99
2022-08-22T09:23:45.298Z,22.04
2022-08-22T09:26:25.994Z,22.11
2022-08-22T09:29:08.694Z,22.17
2022-08-22T09:31:52.642Z,22.25
2022-08-22T09:34:33.813Z,22.33
2022-08-22T09:37:20.708Z,22.39
2022-08-22T09:40:05.512Z,22.46
2022-08-22T09:42:51.285Z,22.51
2022-08-22T09:45:45.421Z,22.57
2022-08-22T09:48:43.028Z,22.68
2022-08-22T09:51:31.966Z,22.76
2022-08-22T09:54:31.439Z,22.85
2022-08-22T09:57:22.684Z,22.95
2022-08-22T10:00:17.476Z,23.06
2022-08-22T10:03:12.503Z,23.17
2022-08-22T10:05:48.926Z,23.26
2022-08-22T10:08:46.559Z,23.33
2022-08-22T10:11:29.080Z,23.40
2022-08-22T10:14:05.942Z,23.47
2022-08-22T10:17:03.731Z,23.57
2022-08-22T10:19:42.924Z,23.66
2022-08-22T10:22:40.468Z,23.78
2022-08-22T10:25:41.630Z,23.89
2022-08-22T10:28:23.499Z,23.95
2022-08-22T10:31:24.133Z,23.99
2022-08-22T10:34:10.984Z,24.06
2022-08-22T10:36:59.305Z,24.12
2022-08-22T10:39:43.988Z,24.16
2022-08-22T10:42:35.086Z,24.19
2022-08-22T10:45:35.957Z,24.27
2022-08-22T10:48:35.676Z,24.34
2022-08-22T10:51:25.827Z,24.40
2022-08-22T10:54:28.346Z,24.48
2022-08-22T10:57:15.468Z,24.58
2022-08-22T11:00:02.948Z,24.68
2022-08-22T11:02:45.238Z,24.83
2022-08-22T11:05:39.309Z,24.97
2022-08-22T11:09:00.280Z,25.13
2022-08-22T11:11:56.162Z,25.23
2022-08-22T11:15:08.048Z,25.32
2022-08-22T11:18:21.256Z,25.41
2022-08-22T11:21:07.316Z,25.51
2022-08-22T11:23:48.207Z,25.60
2022-08-22T11:26:47.025Z,25.69
2022-08-22T11:29:46.303Z,25.79
2022-08-22T11:32:26.745Z,25.85
2022-08-22T11:35:09.201Z,25.89
2022-08-22T11:37:54.818Z,25.93
2022-08-22T11:40:37.745Z,26.00
2022-08-22T11:43:38.294Z,26.07
2022-08-22T11:46:28.405Z,26.15
2022-08-22T11:49:33.612Z,26.25
2022-08-22T11:52:31.000Z,26.27
2022-08-22T11:55:32.734Z,26.32
2022-08-22T11:58:28.729Z,26.35
2022-08-22T12:01:04.495Z,26.40
2022-08-22T12:04:03.319Z,26.45
2022-08-22T12:07:03.047Z,26.45
2022-08-22T12:09:55.204Z,26.53
2022-08-22T12:12:51.553Z,26.59
2022-08-22T12:15:26.520Z,26.64
2022-08-22T12:18:56.131Z,26.73
2022-08-22T12:22:00.536Z,26.81
2022-08-22T12:24:43.532Z,26.80
2022-08-22T12:27:55.166Z,26.83
2022-08-22T12:30:38.738Z,26.89
2022-08-22T12:33:41.044Z,26.94
2022-08-22T12:36:32.525Z,26.98
2022-08-22T12:39:42.700Z,26.96
2022-08-22T12:42:46.297Z,27.00
2022-08-22T12:45:40.742Z,27.04
2022-08-22T12:48:32.413Z,27.09
2022-08-22T12:51:29.400Z,27.14
2022-08-22T12:54:41.895Z,27.19
2022-08-22T12:57:27.817Z,27.15
2022-08-22T13:00:09.125Z,27.11
2022-08-22T13:02:44.981Z,27.13
2022-08-22T13:05:21.739Z,27.17
2022-08-22T13:08:04.404Z,27.19
2022-08-22T13:10:58.243Z,27.25
2022-08-22T13:13:37.109Z,27.30
2022-08-22T13:16:12.333Z,27.43
2022-08-22T13:18:54.379Z,27.52
2022-08-22T13:21:34.680Z,27.59
2022-08-22T13:24:16.905Z,27.62
2022-08-22T13:26:54.282Z,27.71
2022-08-22T13:29:39.163Z,27.78
2022-08-22T13:32:26.214Z,27.82
2022-08-22T13:34:59.495Z,27.82
2022-08-22T13:37:38.004Z,27.91
2022-08-22T13:40:14.553Z,27.89
2022-08-22T13:42:50.124Z,27.91
2022-08-22T13:45:28.686Z,27.86
2022-08-22T13:48:03.867Z,27.89
2022-08-22T13:51:08.129Z,27.93
2022-08-22T13:53:49.749Z,28.07
2022-08-22T13:56:47.121Z,28.03
2022-08-22T13:59:49.772Z,28.00
2022-08-22T14:02:43.491Z,27.96
2022-08-22T14:05:23.939Z,27.92
2022-08-22T14:08:12.483Z,27.94
2022-08-22T14:10:55.633Z,27.88
2022-08-22T14:13:44.077Z,27.81
2022-08-22T14:16:22.745Z,27.82
2022-08-22T14:18:54.948Z,27.85
2022-08-22T14:21:59.516Z,27.91
2022-08-22T14:24:34.293Z,27.99
2022-08-22T14:27:17.587Z,28.14
2022-08-22T14:29:56.460Z,28.27
2022-08-22T14:32:47.961Z,28.39
2022-08-22T14:35:25.686Z,28.56
2022-08-22T14:38:27.485Z,28.72
2022-08-22T14:41:08.110Z,28.87
2022-08-22T14:43:54.980Z,29.05
2022-08-22T14:46:43.467Z,29.21
2022-08-22T14:49:47.194Z,29.31
2022-08-22T14:52:32.768Z,29.50
2022-08-22T14:55:17.695Z,29.58
2022-08-22T14:57:56.303Z,29.64
2022-08-22T15:00:31.301Z,29.70
2022-08-22T15:03:27.053Z,29.81
2022-08-22T15:06:00.612Z,29.93
2022-08-22T15:08:34.704Z,30.01
2022-08-22T15:11:22.985Z,30.07
2022-08-22T15:14:01.442Z,30.13
2022-08-22T15:16:36.764Z,30.21
2022-08-22T15:19:27.483Z,30.15
2022-08-22T15:22:13.637Z,30.21
2022-08-22T15:24:51.200Z,30.22
2022-08-22T15:27:27.786Z,30.20
2022-08-22T15:30:03.546Z,30.23
2022-08-22T15:32:41.962Z,30.32
2022-08-22T15:35:17.780Z,30.34
2022-08-22T15:38:01.548Z,30.33
2022-08-22T15:40:40.448Z,30.33
2022-08-22T15:43:25.050Z,30.27
2022-08-22T15:46:26.507Z,30.15
2022-08-22T15:49:01.885Z,30.12
2022-08-22T15:51:42.494Z,30.03
2022-08-22T15:54:24.594Z,29.95
2022-08-22T15:57:19.160Z,29.89
2022-08-22T15:59:59.107Z,29.88
2022-08-22T16:02:36.950Z,29.88
2022-08-22T16:05:26.594Z,29.91
2022-08-22T16:08:06.315Z,29.94
2022-08-22T16:10:42.424Z,29.97
2022-08-22T16:13:43.992Z,29.92
2022-08-22T16:16:49.036Z,29.83
2022-08-22T16:19:24.861Z,29.81
2022-08-22T16:22:47.389Z,29.83
2022-08-22T16:25:18.039Z,29.87
2022-08-22T16:27:58.336Z,29.86
2022-08-22T16:30:39.652Z,29.82
2022-08-22T16:33:18.286Z,29.75
2022-08-22T16:36:45.293Z,29.68
2022-08-22T16:39:38.054Z,29.60
2022-08-22T16:42:28.599Z,29.41
2022-08-22T16:45:17.704Z,29.33
2022-08-22T16:48:02.267Z,29.30
2022-08-22T16:50:40.943Z,29.32
2022-08-22T16:53:47.913Z,29.31
2022-08-22T16:56:28.505Z,29.30
2022-08-22T16:59:24.059Z,29.29
2022-08-22T17:02:26.777Z,29.31
2022-08-22T17:05:20.851Z,29.24
2022-08-22T17:08:11.527Z,29.21
2022-08-22T17:10:59.620Z,29.21
2022-08-22T17:14:03.436Z,29.21
2022-08-22T17:16:56.440Z,29.19
2022-08-22T17:19:53.442Z,29.16
2022-08-22T17:22:38.434Z,29.13
2022-08-22T17:25:29.885Z,29.08
2022-08-22T17:28:19.991Z,29.06
2022-08-22T17:31:02.265Z,29.02
2022-08-22T17:34:04.009Z,28.95
2022-08-22T17:36:53.143Z,28.92
2022-08-22T17:39:47.356Z,28.85
2022-08-22T17:42:39.578Z,28.77
2022-08-22T17:45:27.734Z,28.72
2022-08-22T17:48:07.888Z,28.64
2022-08-22T17:50:47.356Z,28.58
2022-08-22T17:53:32.569Z,28.48
2022-08-22T17:56:21.280Z,28.38
2022-08-22T17:59:03.025Z,28.27
2022-08-22T18:01:50.564Z,28.20
2022-08-22T18:04:32.419Z,28.09
2022-08-22T18:07:25.362Z,27.98
2022-08-22T18:10:04.719Z,27.86
2022-08-22T18:12:43.562Z,27.78
2022-08-22T18:15:24.634Z,27.70
2022-08-22T18:18:02.116Z,27.61
2022-08-22T18:20:40.890Z,27.51
2022-08-22T18:23:39.263Z,27.42
2022-08-22T18:26:24.357Z,27.33
2022-08-22T18:29:08.508Z,27.22
2022-08-22T18:31:49.543Z,27.11
2022-08-22T18:34:36.703Z,26.99
2022-08-22T18:37:42.526Z,26.97
2022-08-22T18:40:28.164Z,26.92
2022-08-22T18:43:08.711Z,26.82
2022-08-22T18:46:04.644Z,26.73
2022-08-22T18:49:05.414Z,26.61
2022-08-22T18:51:38.151Z,26.60
2022-08-22T18:54:40.961Z,26.54
2022-08-22T18:57:40.302Z,26.49
2022-08-22T19:00:16.530Z,26.38
2022-08-22T19:03:36.043Z,26.34
2022-08-22T19:06:38.604Z,26.31
2022-08-22T19:09:35.094Z,26.31
2022-08-22T19:12:23.114Z,26.24
2022-08-22T19:15:21.454Z,26.16
2022-08-22T19:18:23.791Z,26.03
2022-08-22T19:21:37.693Z,25.93
2022-08-22T19:24:13.835Z,25.85
2022-08-22T19:26:47.995Z,25.80
2022-08-22T19:30:03.218Z,25.73
2022-08-22T19:33:03.175Z,25.63
2022-08-22T19:35:46.004Z,25.50
2022-08-22T19:38:53.131Z,25.31
2022-08-22T19:41:52.464Z,25.30
2022-08-22T19:44:42.213Z,25.17
2022-08-22T19:47:35.129Z,25.02
2022-08-22T19:50:13.829Z,24.99
2022-08-22T19:53:19.378Z,24.90
2022-08-22T19:56:11.328Z,24.91
2022-08-22T19:59:02.017Z,24.91
2022-08-22T20:01:51.359Z,24.87
2022-08-22T20:05:04.086Z,24.72
2022-08-22T20:07:53.012Z,24.57
2022-08-22T20:10:33.146Z,24.54
2022-08-22T20:13:11.888Z,24.53
2022-08-22T20:16:09.617Z,24.48
2022-08-22T20:19:18.932Z,24.28
2022-08-22T20:21:59.966Z,24.04
2022-08-22T20:24:40.469Z,23.91
2022-08-22T20:27:18.345Z,23.86
2022-08-22T20:29:56.540Z,23.82
2022-08-22T20:32:28.104Z,23.82
2022-08-22T20:35:01.355Z,23.82
2022-08-22T20:38:03.135Z,23.83
2022-08-22T20:40:55.285Z,23.81
2022-08-22T20:43:35.435Z,23.72
2022-08-22T20:46:36.833Z,23.61
2022-08-22T20:49:07.580Z,23.49
2022-08-22T20:51:36.650Z,23.39
2022-08-22T20:54:35.219Z,23.32
2022-08-22T20:57:13.982Z,23.33
2022-08-22T20:59:52.201Z,23.18
2022-08-22T21:02:27.012Z,23.02
2022-08-22T21:05:01.829Z,23.04
2022-08-22T21:07:34.874Z,23.02
2022-08-22T21:10:27.215Z,22.95
2022-08-22T21:13:08.980Z,22.94
2022-08-22T21:15:42.099Z,22.89
2022-08-22T21:18:14.228Z,22.73
2022-08-22T21:20:44.084Z,22.59
2022-08-22T21:23:16.372Z,22.53
2022-08-22T21:25:57.223Z,22.41
2022-08-22T21:28:35.787Z,22.34
2022-08-22T21:31:17.042Z,22.34
2022-08-22T21:33:50.035Z,22.30
2022-08-22T21:36:24.310Z,22.26
2022-08-22T21:38:57.387Z,22.23
2022-08-22T21:41:30.355Z,22.26
2022-08-22T21:44:30.155Z,22.19
2022-08-22T21:47:17.181Z,22.15
2022-08-22T21:50:31.753Z,22.11
2022-08-22T21:53:11.917Z,21.93
2022-08-22T21:55:44.732Z,21.87
2022-08-22T21:58:36.585Z,21.87
2022-08-22T22:01:33.234Z,21.85
2022-08-22T22:04:01.917Z,21.77
2022-08-22T22:06:31.116Z,21.57
2022-08-22T22:09:00.921Z,21.49
2022-08-22T22:11:29.555Z,21.53
2022-08-22T22:13:58.178Z,21.50
2022-08-22T22:16:29.726Z,21.50
2022-08-22T22:18:59.008Z,21.48
2022-08-22T22:21:29.593Z,21.37
2022-08-22T22:23:58.399Z,21.21
2022-08-22T22:26:30.055Z,21.25
2022-08-22T22:28:59.796Z,21.20
2022-08-22T22:31:28.457Z,21.19
2022-08-22T22:33:56.944Z,21.15
2022-08-22T22:36:28.680Z,21.02
2022-08-22T22:38:57.233Z,20.92
2022-08-22T22:41:26.143Z,20.94
2022-08-22T22:43:58.247Z,20.79
2022-08-22T22:46:26.956Z,20.65
2022-08-22T22:48:55.608Z,20.67
2022-08-22T22:51:24.842Z,20.61
2022-08-22T22:53:53.895Z,20.61
2022-08-22T22:56:24.805Z,20.59
2022-08-22T22:58:59.304Z,20.57
2022-08-22T23:02:03.776Z,20.49
2022-08-22T23:04:33.969Z,20.50
2022-08-22T23:07:03.169Z,20.51
2022-08-22T23:09:38.419Z,20.51
2022-08-22T23:12:14.120Z,20.41
2022-08-22T23:14:44.277Z,20.31
2022-08-22T23:17:12.995Z,20.23
2022-08-22T23:19:41.657Z,20.29
2022-08-22T23:22:12.603Z,20.31
2022-08-22T23:24:41.974Z,20.16
2022-08-22T23:27:12.529Z,20.05
2022-08-22T23:29:44.020Z,19.96
2022-08-22T23:32:14.671Z,19.90
2022-08-22T23:34:46.868Z,19.87
2022-08-22T23:37:19.948Z,19.80
2022-08-22T23:39:49.434Z,19.73
2022-08-22T23:42:19.268Z,19.70
2022-08-22T23:44:49.377Z,19.78
2022-08-22T23:47:18.463Z,19.77
2022-08-22T23:49:47.529Z,19.75
2022-08-22T23:52:16.090Z,19.68
2022-08-22T23:54:45.212Z,19.55
2022-08-22T23:57:13.733Z,19.47
2022-08-22T23:59:48.468Z,19.35
